Time;durP1;ratioP1;P1;durP2;ratioP2;P2;SDS_P1;SDS_P2;PMS_P1;PMS_P2;Temp;Humidity;BMP_temperature;BMP_pressure;BME280_temperature;BME280_humidity;BME280_pressure;Samples;Min_cycle;Max_cycle;Signal;HPM_P1;HPM_P2
2023/04/07 15:12:23;;;;;;;43.22;16.27;;;;;;;;;;6305386;28;20402;-55
2023/04/07 15:15:24;;;;;;;39.92;14.85;;;;;;;;;;6301947;28;20058;-61
2023/04/07 15:18:24;;;;;;;38.58;15.80;;;;;;;;;;6304969;28;20055;-60
2023/04/07 15:21:25;;;;;;;36.80;15.52;;;;;;;;;;6304457;28;20048;-60
2023/04/07 15:24:26;;;;;;;34.60;14.82;;;;;;;;;;6301387;28;20070;-61
2023/04/07 15:27:27;;;;;;;37.15;16.67;;;;;;;;;;6303051;28;20186;-60
2023/04/07 15:30:27;;;;;;;34.45;14.65;;;;;;;;;;6305146;28;20939;-61
2023/04/07 15:33:28;;;;;;;37.65;15.65;;;;;;;;;;6306454;28;20745;-61
2023/04/07 15:36:28;;;;;;;34.28;13.70;;;;;;;;;;6304089;28;20491;-62
2023/04/07 15:39:29;;;;;;;33.72;15.18;;;;;;;;;;6304194;28;20051;-60
2023/04/07 15:42:30;;;;;;;37.42;15.35;;;;;;;;;;6306347;28;20059;-60
2023/04/07 15:45:32;;;;;;;35.65;16.27;;;;;;;;;;6304010;28;20048;-61
2023/04/07 15:48:32;;;;;;;35.40;15.65;;;;;;;;;;6304431;28;20127;-60
2023/04/07 15:51:33;;;;;;;37.97;17.20;;;;;;;;;;6305047;28;20462;-60
2023/04/07 15:54:33;;;;;;;36.22;16.30;;;;;;;;;;6303913;28;20045;-60
2023/04/07 15:57:34;;;;;;;38.42;16.10;;;;;;;;;;6305226;28;20055;-61
2023/04/07 16:00:37;;;;;;;36.35;15.82;;;;;;;;;;6302604;28;20106;-61
2023/04/07 16:03:37;;;;;;;39.63;16.83;;;;;;;;;;6304963;28;20048;-59
2023/04/07 16:06:38;;;;;;;35.03;15.73;;;;;;;;;;6304379;28;20403;-59
2023/04/07 16:09:39;;;;;;;38.95;17.30;;;;;;;;;;6302489;28;20052;-59
2023/04/07 16:12:39;;;;;;;34.97;15.70;;;;;;;;;;6302827;28;20493;-59
2023/04/07 16:15:40;;;;;;;35.67;15.63;;;;;;;;;;6302560;28;20388;-59
2023/04/07 16:18:40;;;;;;;31.90;15.35;;;;;;;;;;6304201;28;20517;-59
2023/04/07 16:21:41;;;;;;;38.17;15.50;;;;;;;;;;6298037;28;20503;-56
2023/04/07 16:24:42;;;;;;;36.00;16.00;;;;;;;;;;6284902;28;20110;-58
2023/04/07 16:27:43;;;;;;;34.00;15.60;;;;;;;;;;6287121;28;20143;-59
2023/04/07 16:30:44;;;;;;;35.90;16.00;;;;;;;;;;6286211;28;20219;-59
2023/04/07 16:33:45;;;;;;;36.95;15.93;;;;;;;;;;6285657;28;20048;-59
2023/04/07 16:36:46;;;;;;;37.22;16.13;;;;;;;;;;6287815;28;20138;-59
2023/04/07 16:39:47;;;;;;;35.40;15.37;;;;;;;;;;6285470;28;20064;-58
2023/04/07 16:42:47;;;;;;;32.80;14.48;;;;;;;;;;6287357;28;20780;-59
2023/04/07 16:45:49;;;;;;;38.38;16.58;;;;;;;;;;6285870;28;20049;-59
2023/04/07 16:48:54;;;;;;;36.42;16.13;;;;;;;;;;6286235;28;20135;-58
2023/04/07 16:51:54;;;;;;;35.75;16.38;;;;;;;;;;6284578;28;20190;-58
2023/04/07 16:54:56;;;;;;;39.83;16.80;;;;;;;;;;6285708;28;20468;-58
2023/04/07 16:57:57;;;;;;;37.45;16.58;;;;;;;;;;6285066;28;20589;-59
2023/04/07 17:00:57;;;;;;;37.15;16.95;;;;;;;;;;6285282;28;20056;-59
2023/04/07 17:03:58;;;;;;;37.83;16.25;;;;;;;;;;6285440;28;20108;-59
2023/04/07 17:06:58;;;;;;;38.08;17.00;;;;;;;;;;6287163;28;20055;-59
2023/04/07 17:10:00;;;;;;;37.80;16.98;;;;;;;;;;6283129;28;20151;-57
2023/04/07 17:13:00;;;;;;;39.53;17.67;;;;;;;;;;6284417;28;20499;-58
2023/04/07 17:16:02;;;;;;;42.65;17.30;;;;;;;;;;6281653;28;20064;-58
2023/04/07 17:19:03;;;;;;;39.60;17.38;;;;;;;;;;6285043;28;20140;-58
2023/04/07 17:22:04;;;;;;;38.40;17.23;;;;;;;;;;6283652;28;20071;-58
2023/04/07 17:25:05;;;;;;;41.00;18.23;;;;;;;;;;6283348;28;20052;-59
2023/04/07 17:28:06;;;;;;;44.40;19.43;;;;;;;;;;6283551;28;20396;-59
2023/04/07 17:31:06;;;;;;;39.65;18.20;;;;;;;;;;6283621;28;20048;-59
2023/04/07 17:34:07;;;;;;;42.88;18.60;;;;;;;;;;6282049;28;20040;-57
2023/04/07 17:37:08;;;;;;;40.95;18.23;;;;;;;;;;6284825;28;20085;-57
2023/04/07 17:40:09;;;;;;;42.35;17.55;;;;;;;;;;6283322;28;20060;-59
2023/04/07 17:43:10;;;;;;;38.28;17.33;;;;;;;;;;6283902;28;20044;-60
2023/04/07 17:46:10;;;;;;;42.90;18.73;;;;;;;;;;6282793;28;20147;-59
2023/04/07 17:49:11;;;;;;;41.03;18.00;;;;;;;;;;6283248;28;20052;-59
2023/04/07 17:52:12;;;;;;;43.95;18.73;;;;;;;;;;6284695;28;20087;-58
2023/04/07 17:55:13;;;;;;;44.35;18.77;;;;;;;;;;6282122;28;20059;-60
2023/04/07 17:58:14;;;;;;;52.40;24.65;;;;;;;;;;6283267;28;21325;-60
2023/04/07 18:01:15;;;;;;;54.22;24.98;;;;;;;;;;6283328;28;20151;-58
2023/04/07 18:04:16;;;;;;;59.70;29.30;;;;;;;;;;6281687;28;20103;-59
2023/04/07 18:07:17;;;;;;;66.70;35.70;;;;;;;;;;6284544;28;20052;-59
2023/04/07 18:10:17;;;;;;;50.65;23.80;;;;;;;;;;6275657;28;21767;-59
2023/04/07 18:13:18;;;;;;;49.80;23.33;;;;;;;;;;6274910;28;20053;-60
2023/04/07 18:16:19;;;;;;;52.17;23.33;;;;;;;;;;6272882;28;20129;-59
2023/04/07 18:19:21;;;;;;;55.83;28.05;;;;;;;;;;6271888;28;20052;-59
2023/04/07 18:22:23;;;;;;;50.42;22.17;;;;;;;;;;6273565;28;20049;-57
2023/04/07 18:25:23;;;;;;;49.72;22.67;;;;;;;;;;6275476;28;20407;-59
2023/04/07 18:28:24;;;;;;;45.45;19.88;;;;;;;;;;6280746;28;20522;-60
2023/04/07 18:31:25;;;;;;;42.35;19.10;;;;;;;;;;6281380;28;20087;-60
2023/04/07 18:34:26;;;;;;;48.42;20.08;;;;;;;;;;6279967;28;20028;-61
2023/04/07 18:37:28;;;;;;;43.97;19.20;;;;;;;;;;6281347;28;20072;-60
2023/04/07 18:40:31;;;;;;;47.22;19.35;;;;;;;;;;6279790;28;20479;-65
2023/04/07 18:43:32;;;;;;;43.78;19.00;;;;;;;;;;6280882;28;20076;-59
2023/04/07 18:46:33;;;;;;;46.92;18.20;;;;;;;;;;6277559;28;20056;-64
2023/04/07 18:49:34;;;;;;;45.83;19.75;;;;;;;;;;6281708;28;20567;-58
2023/04/07 18:52:34;;;;;;;43.55;19.45;;;;;;;;;;6279095;28;20113;-64
2023/04/07 18:55:35;;;;;;;46.15;19.55;;;;;;;;;;6279905;28;20060;-61
2023/04/07 18:58:42;;;;;;;42.88;19.08;;;;;;;;;;6281947;28;20082;-57
2023/04/07 19:01:43;;;;;;;48.95;20.17;;;;;;;;;;6278809;28;20049;-57
2023/04/07 19:04:43;;;;;;;44.70;19.25;;;;;;;;;;6280168;28;20122;-60
2023/04/07 19:07:44;;;;;;;50.75;24.33;;;;;;;;;;6282575;28;20497;-61
2023/04/07 19:10:45;;;;;;;55.45;25.20;;;;;;;;;;6273751;28;20499;-55
2023/04/07 19:13:45;;;;;;;52.70;22.98;;;;;;;;;;6275757;28;20461;-57
2023/04/07 19:16:46;;;;;;;66.32;31.20;;;;;;;;;;6279533;28;20133;-56
2023/04/07 19:19:47;;;;;;;48.75;22.55;;;;;;;;;;6276930;28;20053;-58
2023/04/07 19:22:48;;;;;;;53.72;25.88;;;;;;;;;;6278770;28;20086;-59
2023/04/07 19:25:49;;;;;;;47.25;22.80;;;;;;;;;;6275890;28;20376;-57
2023/04/07 19:28:50;;;;;;;46.92;21.58;;;;;;;;;;6278231;28;20507;-56
2023/04/07 19:31:51;;;;;;;47.95;22.00;;;;;;;;;;6275864;28;20063;-59
2023/04/07 19:34:52;;;;;;;45.33;19.67;;;;;;;;;;6275547;28;20052;-59
2023/04/07 19:37:53;;;;;;;46.40;21.50;;;;;;;;;;6278613;28;20055;-59
2023/04/07 19:40:54;;;;;;;49.03;23.45;;;;;;;;;;6276545;28;20052;-58
2023/04/07 19:43:54;;;;;;;49.17;25.23;;;;;;;;;;6276278;28;20565;-59
2023/04/07 19:46:56;;;;;;;50.33;23.85;;;;;;;;;;6277578;28;20068;-58
2023/04/07 19:49:56;;;;;;;48.03;20.80;;;;;;;;;;6274870;28;20045;-60
2023/04/07 19:52:57;;;;;;;54.20;27.10;;;;;;;;;;6277383;28;20229;-62
2023/04/07 19:56:01;;;;;;;53.78;26.20;;;;;;;;;;6273778;28;20048;-60
2023/04/07 19:59:01;;;;;;;48.80;23.85;;;;;;;;;;6277787;28;20101;-59
2023/04/07 20:02:02;;;;;;;52.15;23.25;;;;;;;;;;6280284;28;20356;-51
2023/04/07 20:05:03;;;;;;;45.13;20.60;;;;;;;;;;6279008;28;20163;-55
2023/04/07 20:08:03;;;;;;;45.35;21.95;;;;;;;;;;6282344;28;20495;-56
2023/04/07 20:11:06;;;;;;;52.50;25.42;;;;;;;;;;6279400;28;20053;-59
2023/04/07 20:14:07;;;;;;;55.55;27.90;;;;;;;;;;6280478;28;20053;-58
2023/04/07 20:17:08;;;;;;;76.80;35.95;;;;;;;;;;6281488;28;20041;-59
2023/04/07 20:20:09;;;;;;;91.72;41.28;;;;;;;;;;6279583;28;20110;-59
2023/04/07 20:23:11;;;;;;;50.10;22.80;;;;;;;;;;6281570;28;20076;-58
2023/04/07 20:26:11;;;;;;;43.07;20.57;;;;;;;;;;6279250;28;20128;-58
2023/04/07 20:29:12;;;;;;;57.25;27.50;;;;;;;;;;6280687;28;20540;-56
2023/04/07 20:32:12;;;;;;;52.30;25.30;;;;;;;;;;6277714;28;20388;-54
2023/04/07 20:35:13;;;;;;;77.50;29.73;;;;;;;;;;6278498;28;20483;-58
2023/04/07 20:38:14;;;;;;;68.38;29.73;;;;;;;;;;6280200;28;20870;-58
2023/04/07 20:41:15;;;;;;;65.22;25.63;;;;;;;;;;6279331;28;20052;-58
2023/04/07 20:44:15;;;;;;;58.97;23.30;;;;;;;;;;6280040;28;20044;-55
2023/04/07 20:47:16;;;;;;;57.17;23.63;;;;;;;;;;6281372;28;20459;-59
2023/04/07 20:50:17;;;;;;;58.85;23.77;;;;;;;;;;6278828;28;20941;-57
2023/04/07 20:53:18;;;;;;;53.45;23.52;;;;;;;;;;6280799;28;20052;-57
2023/04/07 20:56:20;;;;;;;57.43;24.70;;;;;;;;;;6278233;28;20060;-59
2023/04/07 20:59:21;;;;;;;57.15;24.45;;;;;;;;;;6281136;28;21050;-59
2023/04/07 21:02:21;;;;;;;57.58;24.25;;;;;;;;;;6280858;28;20086;-58
2023/04/07 21:05:22;;;;;;;53.50;23.42;;;;;;;;;;6280736;28;20502;-56
2023/04/07 21:08:23;;;;;;;56.50;24.63;;;;;;;;;;6280619;28;20102;-54
2023/04/07 21:11:24;;;;;;;57.50;25.42;;;;;;;;;;6272886;28;20090;-55
2023/04/07 21:14:25;;;;;;;61.63;24.33;;;;;;;;;;6274369;28;20044;-55
2023/04/07 21:17:26;;;;;;;67.55;26.80;;;;;;;;;;6275034;28;20144;-56
2023/04/07 21:20:26;;;;;;;69.20;29.77;;;;;;;;;;6275088;28;20053;-58
2023/04/07 21:23:27;;;;;;;60.97;26.98;;;;;;;;;;6274971;28;20475;-55
2023/04/07 21:26:27;;;;;;;66.78;26.30;;;;;;;;;;6273270;28;20491;-57
2023/04/07 21:29:30;;;;;;;68.03;27.42;;;;;;;;;;6273060;28;20601;-57
2023/04/07 21:32:31;;;;;;;;;;;;;;;;;;6275739;28;20052;-55
2023/04/07 21:35:32;;;;;;;63.80;24.27;;;;;;;;;;6274980;28;20018;-56
2023/04/07 21:38:33;;;;;;;63.72;24.83;;;;;;;;;;6275725;28;20064;-55
2023/04/07 21:41:34;;;;;;;65.07;26.90;;;;;;;;;;6273607;28;20079;-55
2023/04/07 21:44:34;;;;;;;58.42;25.83;;;;;;;;;;6275106;28;20048;-54
2023/04/07 21:47:35;;;;;;;62.38;25.20;;;;;;;;;;6274587;28;20109;-57
2023/04/07 21:50:35;;;;;;;70.22;29.52;;;;;;;;;;6271899;28;20059;-56
2023/04/07 21:53:36;;;;;;;58.83;24.17;;;;;;;;;;6275526;28;20057;-56
2023/04/07 21:56:37;;;;;;;53.00;22.40;;;;;;;;;;6272572;28;20052;-55
2023/04/07 21:59:38;;;;;;;55.70;23.40;;;;;;;;;;6273286;28;20174;-54
2023/04/07 22:02:39;;;;;;;54.03;22.73;;;;;;;;;;6276438;28;20061;-56
2023/04/07 22:05:39;;;;;;;52.30;22.15;;;;;;;;;;6274638;28;20113;-55
2023/04/07 22:08:40;;;;;;;54.42;24.23;;;;;;;;;;6274274;28;20148;-55
2023/04/07 22:11:41;;;;;;;61.17;23.73;;;;;;;;;;6271662;28;20053;-56
2023/04/07 22:14:44;;;;;;;56.00;24.23;;;;;;;;;;6273769;28;20882;-56
2023/04/07 22:17:44;;;;;;;58.08;25.42;;;;;;;;;;6273788;28;20052;-55
2023/04/07 22:20:45;;;;;;;58.50;26.50;;;;;;;;;;6273148;28;20450;-55
2023/04/07 22:23:46;;;;;;;55.60;22.00;;;;;;;;;;6275651;28;20045;-55
2023/04/07 22:26:46;;;;;;;50.22;21.30;;;;;;;;;;6272384;28;20056;-57
2023/04/07 22:29:47;;;;;;;45.83;20.50;;;;;;;;;;6270263;28;20170;-56
2023/04/07 22:32:47;;;;;;;45.72;21.38;;;;;;;;;;6272815;28;20053;-53
2023/04/07 22:35:48;;;;;;;49.60;20.98;;;;;;;;;;6273476;28;20091;-54
2023/04/07 22:38:50;;;;;;;56.10;21.98;;;;;;;;;;6273618;28;20052;-54
2023/04/07 22:41:51;;;;;;;58.72;25.38;;;;;;;;;;6271827;28;20098;-54
2023/04/07 22:44:51;;;;;;;55.35;23.17;;;;;;;;;;6270312;28;20049;-53
2023/04/07 22:47:52;;;;;;;58.63;24.25;;;;;;;;;;6270165;28;20052;-52
2023/04/07 22:50:53;;;;;;;54.88;22.92;;;;;;;;;;6271630;28;20048;-55
2023/04/07 22:53:55;;;;;;;58.75;23.95;;;;;;;;;;6271730;28;20063;-53
2023/04/07 22:56:56;;;;;;;52.97;24.27;;;;;;;;;;6272446;28;20508;-53
2023/04/07 22:59:56;;;;;;;56.10;23.25;;;;;;;;;;6270989;28;20040;-52
2023/04/07 23:02:57;;;;;;;58.85;22.42;;;;;;;;;;6271691;28;20963;-54
2023/04/07 23:06:00;;;;;;;50.38;21.83;;;;;;;;;;6272660;28;20072;-53
2023/04/07 23:09:00;;;;;;;;;;;;;;;;;;6272553;28;20049;-56
2023/04/07 23:12:01;;;;;;;54.08;20.60;;;;;;;;;;6272626;28;19928;-55
2023/04/07 23:15:01;;;;;;;51.00;21.70;;;;;;;;;;6270693;28;20659;-55
2023/04/07 23:18:02;;;;;;;51.17;21.30;;;;;;;;;;6273059;28;20143;-54
2023/04/07 23:21:02;;;;;;;53.38;22.35;;;;;;;;;;6270691;28;20049;-53
2023/04/07 23:24:03;;;;;;;48.20;21.35;;;;;;;;;;6270677;28;20132;-56
2023/04/07 23:27:04;;;;;;;55.35;22.50;;;;;;;;;;6272093;28;20179;-55
2023/04/07 23:30:06;;;;;;;54.05;21.75;;;;;;;;;;6271540;28;20067;-55
2023/04/07 23:33:06;;;;;;;59.47;28.08;;;;;;;;;;6276172;28;20060;-58
2023/04/07 23:36:07;;;;;;;53.85;25.30;;;;;;;;;;6276587;28;20055;-56
2023/04/07 23:39:07;;;;;;;51.45;21.60;;;;;;;;;;6276003;28;20045;-55
2023/04/07 23:42:08;;;;;;;41.58;17.38;;;;;;;;;;6275420;28;20769;-55
2023/04/07 23:45:09;;;;;;;48.42;21.00;;;;;;;;;;6275799;28;20053;-56
2023/04/07 23:48:10;;;;;;;47.60;20.58;;;;;;;;;;6277417;28;20060;-56
2023/04/07 23:51:11;;;;;;;42.58;19.30;;;;;;;;;;6275411;28;20048;-57
2023/04/07 23:54:12;;;;;;;45.25;22.13;;;;;;;;;;6273844;28;20055;-56
2023/04/07 23:57:13;;;;;;;45.80;22.45;;;;;;;;;;6277195;28;20423;-55
